Isabella — 9HSL7 — position and weather

sailwx.info

Track history (hours):
 
Tides and Currents Weather Stations Pressure Air Temp Water Temp Dewpoint Dewpoint Depression Visibility Wind Speed Wind Dir Waves Ship Positions

Isabella

Last reported at 2016-Dec-08 18:17 UTC. Time now 2016-Dec-08 20:14 UTC.
Position N 53°58' E 007°41'.

Length 244 m; draft 8 m.

Type: Tanker. MMSI: 215545000.

Date/timePositionNaut miles runAvg speedWind from/ knotsBaromVisibWave heightAir tempDewpointWater temp
2016-Dec-08 18:17N 53°58' E 007°41'1312.4
2016-Dec-08 17:16N 53°49' E 007°56'811.0
2016-Dec-08 16:33N 53°43' E 008°04'1010.2
2016-Dec-08 15:33N 53°34' E 008°10'0 0.0
2016-Dec-07 11:27N 53°33' E 008°10'0 0.1
2016-Dec-07 10:33N 53°33' E 008°10'5 4.5
2016-Dec-07 09:33N 53°38' E 008°09'7 7.3
2016-Dec-07 08:33N 53°44' E 008°03'7 7.4
2016-Dec-07 07:33N 53°50' E 007°54'11 9.6
2016-Dec-07 06:26N 53°56' E 007°39'8 8.0
2016-Dec-07 05:23N 54°03' E 007°33'7 9.0
2016-Dec-07 04:33N 54°10' E 007°27'1212.0
2016-Dec-07 03:33N 54°20' E 007°18'1312.5
2016-Dec-07 02:32N 54°32' E 007°08'1312.7
2016-Dec-07 01:33N 54°43' E 006°59'1312.7
2016-Dec-07 00:31N 54°55' E 006°49'1212.5
2016-Dec-06 23:33N 55°06' E 006°40'1212.4
2016-Dec-06 22:33N 55°18' E 006°34'13811.5
2016-Dec-06 10:33N 57°24' E 008°15'8512.2
2016-Dec-06 03:33N 57°46' E 010°48'1111.1
2016-Dec-06 02:33N 57°39' E 011°04'1312.9
2016-Dec-06 01:33N 57°30' E 011°21'1312.7
2016-Dec-06 00:33N 57°19' E 011°32'1312.7
2016-Dec-05 23:33N 57°07' E 011°40'1313.0
2016-Dec-05 22:33N 56°55' E 011°48'1211.7
2016-Dec-05 21:33N 56°43' E 011°52'8810.9
2016-Dec-05 13:26N 55°19' E 011°02'9 9.6
2016-Dec-05 12:32N 55°10' E 011°02'1010.7
2016-Dec-05 11:33N 55°00' E 010°59'1110.6
2016-Dec-05 10:33N 54°51' E 010°50'1110.6
2016-Dec-05 09:33N 54°40' E 010°48'1110.9
2016-Dec-05 08:33N 54°36' E 011°06'1111.0
2016-Dec-05 07:33N 54°32' E 011°23'1211.7
2016-Dec-05 06:33N 54°28' E 011°42'1311.2
2016-Dec-05 05:24N 54°26' E 012°04'7 8.9
2016-Dec-05 04:33N 54°31' E 012°14'8 7.8
2016-Dec-05 03:33N 54°38' E 012°21'5111.4
2016-Dec-04 23:07N 54°58' E 013°41'712.4
2016-Dec-04 22:32N 55°00' E 013°53'1212.2
2016-Dec-04 21:33N 55°07' E 014°10'1212.4
2016-Dec-04 20:33N 55°17' E 014°22'1312.5
2016-Dec-04 19:33N 55°27' E 014°36'1312.7
2016-Dec-04 18:33N 55°33' E 014°56'1212.3
2016-Dec-04 17:32N 55°38' E 015°16'36311.7
2016-Dec-03 10:33N 59°41' E 023°42'1212.5
2016-Dec-03 09:33N 59°44' E 024°06'1712.4
2016-Dec-03 08:11N 59°48' E 024°39'812.4
2016-Dec-03 07:33N 59°50' E 024°54'1212.5
2016-Dec-03 06:33N 59°52' E 025°18'1312.8
2016-Dec-03 05:33N 59°54' E 025°43'1713.1
2016-Dec-03 04:18N 59°59' E 026°15'1013.0
2016-Dec-03 03:33N 60°01' E 026°34'1312.7
2016-Dec-03 02:32N 59°59' E 026°59'1313.0
2016-Dec-03 01:33N 60°05' E 027°22'1313.0
2016-Dec-03 00:33N 60°12' E 027°45'1212.6
2016-Dec-02 23:33N 60°09' E 028°09'1212.0
2016-Dec-02 22:33N 60°09' E 028°33'9 8.8
2016-Dec-02 21:33N 60°14' E 028°47'6 0.2
2016-Dec-01 06:21N 60°20' E 028°42'6 6.9
2016-Dec-01 05:29N 60°15' E 028°48'7 7.8
2016-Dec-01 04:33N 60°08' E 028°41'10 9.5
2016-Dec-01 03:33N 60°02' E 028°27'0 0.1
2016-Dec-01 02:33N 60°02' E 028°27'0 0.0
2016-Dec-01 01:21N 60°02' E 028°27'0 0.1
2016-Dec-01 00:33N 60°02' E 028°27'0 0.0
2016-Nov-30 23:24N 60°02' E 028°27'0 0.0
2016-Nov-30 22:24N 60°02' E 028°27'0 0.0
2016-Nov-30 21:28N 60°02' E 028°27'0 0.0
2016-Nov-30 20:27N 60°02' E 028°27'0 0.0
2016-Nov-30 19:30N 60°02' E 028°27'0 0.0
2016-Nov-30 18:30N 60°02' E 028°27'0 0.0
2016-Nov-30 17:30N 60°02' E 028°27'0 0.1
2016-Nov-30 16:33N 60°02' E 028°27'0 0.0
2016-Nov-30 15:33N 60°02' E 028°27'0 0.0
2016-Nov-30 14:33N 60°02' E 028°27'0 0.0
2016-Nov-30 13:33N 60°02' E 028°27'0 0.1
2016-Nov-30 12:33N 60°02' E 028°27'0 0.0
2016-Nov-30 11:33N 60°02' E 028°27'0 0.1
2016-Nov-30 10:33N 60°02' E 028°27'0 0.1
2016-Nov-30 09:33N 60°02' E 028°27'0 0.0
2016-Nov-30 08:24N 60°02' E 028°27'0 0.1
2016-Nov-30 07:27N 60°02' E 028°27'0 0.0
2016-Nov-30 06:27N 60°02' E 028°27'0 0.1
2016-Nov-30 05:30N 60°02' E 028°27'0 0.0
2016-Nov-30 04:30N 60°02' E 028°27'0 0.1
2016-Nov-30 03:15N 60°02' E 028°27'0 0.1
2016-Nov-30 02:30N 60°02' E 028°27'0 0.1
2016-Nov-30 01:33N 60°02' E 028°27'0 0.1
2016-Nov-30 00:33N 60°02' E 028°27'0 0.0
2016-Nov-29 23:33N 60°02' E 028°27'0 0.1
2016-Nov-29 22:33N 60°02' E 028°27'0 0.0
2016-Nov-29 21:33N 60°02' E 028°27'0 0.0
2016-Nov-29 20:33N 60°02' E 028°27'0 0.1
2016-Nov-29 19:24N 60°02' E 028°27'0 0.1
2016-Nov-29 18:24N 60°01' E 028°27'0 0.0
2016-Nov-29 17:27N 60°01' E 028°27'0 0.1
2016-Nov-29 16:27N 60°01' E 028°27'0 0.0
2016-Nov-29 15:30N 60°01' E 028°27'0 0.0
2016-Nov-29 14:30N 60°01' E 028°27'0 0.0
2016-Nov-29 13:27N 60°01' E 028°27'0 0.0
2016-Nov-29 12:33N 60°01' E 028°27'0 0.0
2016-Nov-29 11:33N 60°01' E 028°27'0 0.0
2016-Nov-29 10:33N 60°01' E 028°27'0 0.0
2016-Nov-29 09:33N 60°01' E 028°27'0 0.0
2016-Nov-29 08:33N 60°01' E 028°27'0 0.0
2016-Nov-29 07:33N 60°01' E 028°27'0 0.0
2016-Nov-29 06:33N 60°01' E 028°27'0 0.1
2016-Nov-29 05:24N 60°01' E 028°27'0 0.0
2016-Nov-29 04:24N 60°01' E 028°27'0 0.0
2016-Nov-29 03:24N 60°01' E 028°27'0 0.1
2016-Nov-29 02:27N 60°01' E 028°27'0 0.1
2016-Nov-29 01:30N 60°01' E 028°27'0 0.1
2016-Nov-29 00:30N 60°01' E 028°27'0 0.0
2016-Nov-28 23:30N 60°01' E 028°27'0 0.0
2016-Nov-28 22:33N 60°01' E 028°27'0 0.0
2016-Nov-28 21:33N 60°01' E 028°27'0 0.0
2016-Nov-28 20:33N 60°01' E 028°27'0 0.0
2016-Nov-28 19:33N 60°01' E 028°27'0 0.0
2016-Nov-28 18:33N 60°01' E 028°27'  
Track history (hours):
 
Tides and Currents Weather Stations Pressure Air Temp Water Temp Dewpoint Dewpoint Depression Visibility Wind Speed Wind Dir Waves Ship Positions

Isabella

Last reported at 2016-Dec-08 18:17 UTC. Time now 2016-Dec-08 20:14 UTC.
Position N 53°58' E 007°41'.

Length 244 m; draft 8 m.

Type: Tanker. MMSI: 215545000.

Date/timePositionNaut miles runAvg speedWind from/ knotsBaromVisibWave heightAir tempDewpointWater temp
2016-Dec-08 18:17N 53°58' E 007°41'1312.4
2016-Dec-08 17:16N 53°49' E 007°56'811.0
2016-Dec-08 16:33N 53°43' E 008°04'1010.2
2016-Dec-08 15:33N 53°34' E 008°10'0 0.0
2016-Dec-07 11:27N 53°33' E 008°10'0 0.1
2016-Dec-07 10:33N 53°33' E 008°10'5 4.5
2016-Dec-07 09:33N 53°38' E 008°09'7 7.3
2016-Dec-07 08:33N 53°44' E 008°03'7 7.4
2016-Dec-07 07:33N 53°50' E 007°54'11 9.6
2016-Dec-07 06:26N 53°56' E 007°39'8 8.0
2016-Dec-07 05:23N 54°03' E 007°33'7 9.0
2016-Dec-07 04:33N 54°10' E 007°27'1212.0
2016-Dec-07 03:33N 54°20' E 007°18'1312.5
2016-Dec-07 02:32N 54°32' E 007°08'1312.7
2016-Dec-07 01:33N 54°43' E 006°59'1312.7
2016-Dec-07 00:31N 54°55' E 006°49'1212.5
2016-Dec-06 23:33N 55°06' E 006°40'1212.4
2016-Dec-06 22:33N 55°18' E 006°34'13811.5
2016-Dec-06 10:33N 57°24' E 008°15'8512.2
2016-Dec-06 03:33N 57°46' E 010°48'1111.1
2016-Dec-06 02:33N 57°39' E 011°04'1312.9
2016-Dec-06 01:33N 57°30' E 011°21'1312.7
2016-Dec-06 00:33N 57°19' E 011°32'1312.7
2016-Dec-05 23:33N 57°07' E 011°40'1313.0
2016-Dec-05 22:33N 56°55' E 011°48'1211.7
2016-Dec-05 21:33N 56°43' E 011°52'8810.9
2016-Dec-05 13:26N 55°19' E 011°02'9 9.6
2016-Dec-05 12:32N 55°10' E 011°02'1010.7
2016-Dec-05 11:33N 55°00' E 010°59'1110.6
2016-Dec-05 10:33N 54°51' E 010°50'1110.6
2016-Dec-05 09:33N 54°40' E 010°48'1110.9
2016-Dec-05 08:33N 54°36' E 011°06'1111.0
2016-Dec-05 07:33N 54°32' E 011°23'1211.7
2016-Dec-05 06:33N 54°28' E 011°42'1311.2
2016-Dec-05 05:24N 54°26' E 012°04'7 8.9
2016-Dec-05 04:33N 54°31' E 012°14'8 7.8
2016-Dec-05 03:33N 54°38' E 012°21'5111.4
2016-Dec-04 23:07N 54°58' E 013°41'712.4
2016-Dec-04 22:32N 55°00' E 013°53'1212.2
2016-Dec-04 21:33N 55°07' E 014°10'1212.4
2016-Dec-04 20:33N 55°17' E 014°22'1312.5
2016-Dec-04 19:33N 55°27' E 014°36'1312.7
2016-Dec-04 18:33N 55°33' E 014°56'1212.3
2016-Dec-04 17:32N 55°38' E 015°16'36311.7
2016-Dec-03 10:33N 59°41' E 023°42'1212.5
2016-Dec-03 09:33N 59°44' E 024°06'1712.4
2016-Dec-03 08:11N 59°48' E 024°39'812.4
2016-Dec-03 07:33N 59°50' E 024°54'1212.5
2016-Dec-03 06:33N 59°52' E 025°18'1312.8
2016-Dec-03 05:33N 59°54' E 025°43'1713.1
2016-Dec-03 04:18N 59°59' E 026°15'1013.0
2016-Dec-03 03:33N 60°01' E 026°34'1312.7
2016-Dec-03 02:32N 59°59' E 026°59'1313.0
2016-Dec-03 01:33N 60°05' E 027°22'1313.0
2016-Dec-03 00:33N 60°12' E 027°45'1212.6
2016-Dec-02 23:33N 60°09' E 028°09'1212.0
2016-Dec-02 22:33N 60°09' E 028°33'9 8.8
2016-Dec-02 21:33N 60°14' E 028°47'6 0.2
2016-Dec-01 06:21N 60°20' E 028°42'6 6.9
2016-Dec-01 05:29N 60°15' E 028°48'7 7.8
2016-Dec-01 04:33N 60°08' E 028°41'10 9.5
2016-Dec-01 03:33N 60°02' E 028°27'0 0.1
2016-Dec-01 02:33N 60°02' E 028°27'0 0.0
2016-Dec-01 01:21N 60°02' E 028°27'0 0.1
2016-Dec-01 00:33N 60°02' E 028°27'0 0.0
2016-Nov-30 23:24N 60°02' E 028°27'0 0.0
2016-Nov-30 22:24N 60°02' E 028°27'0 0.0
2016-Nov-30 21:28N 60°02' E 028°27'0 0.0
2016-Nov-30 20:27N 60°02' E 028°27'0 0.0
2016-Nov-30 19:30N 60°02' E 028°27'0 0.0
2016-Nov-30 18:30N 60°02' E 028°27'0 0.0
2016-Nov-30 17:30N 60°02' E 028°27'0 0.1
2016-Nov-30 16:33N 60°02' E 028°27'0 0.0
2016-Nov-30 15:33N 60°02' E 028°27'0 0.0
2016-Nov-30 14:33N 60°02' E 028°27'0 0.0
2016-Nov-30 13:33N 60°02' E 028°27'0 0.1
2016-Nov-30 12:33N 60°02' E 028°27'0 0.0
2016-Nov-30 11:33N 60°02' E 028°27'0 0.1
2016-Nov-30 10:33N 60°02' E 028°27'0 0.1
2016-Nov-30 09:33N 60°02' E 028°27'0 0.0
2016-Nov-30 08:24N 60°02' E 028°27'0 0.1
2016-Nov-30 07:27N 60°02' E 028°27'0 0.0
2016-Nov-30 06:27N 60°02' E 028°27'0 0.1
2016-Nov-30 05:30N 60°02' E 028°27'0 0.0
2016-Nov-30 04:30N 60°02' E 028°27'0 0.1
2016-Nov-30 03:15N 60°02' E 028°27'0 0.1
2016-Nov-30 02:30N 60°02' E 028°27'0 0.1
2016-Nov-30 01:33N 60°02' E 028°27'0 0.1
2016-Nov-30 00:33N 60°02' E 028°27'0 0.0
2016-Nov-29 23:33N 60°02' E 028°27'0 0.1
2016-Nov-29 22:33N 60°02' E 028°27'0 0.0
2016-Nov-29 21:33N 60°02' E 028°27'0 0.0
2016-Nov-29 20:33N 60°02' E 028°27'0 0.1
2016-Nov-29 19:24N 60°02' E 028°27'0 0.1
2016-Nov-29 18:24N 60°01' E 028°27'0 0.0
2016-Nov-29 17:27N 60°01' E 028°27'0 0.1
2016-Nov-29 16:27N 60°01' E 028°27'0 0.0
2016-Nov-29 15:30N 60°01' E 028°27'0 0.0
2016-Nov-29 14:30N 60°01' E 028°27'0 0.0
2016-Nov-29 13:27N 60°01' E 028°27'0 0.0
2016-Nov-29 12:33N 60°01' E 028°27'0 0.0
2016-Nov-29 11:33N 60°01' E 028°27'0 0.0
2016-Nov-29 10:33N 60°01' E 028°27'0 0.0
2016-Nov-29 09:33N 60°01' E 028°27'0 0.0
2016-Nov-29 08:33N 60°01' E 028°27'0 0.0
2016-Nov-29 07:33N 60°01' E 028°27'0 0.0
2016-Nov-29 06:33N 60°01' E 028°27'0 0.1
2016-Nov-29 05:24N 60°01' E 028°27'0 0.0
2016-Nov-29 04:24N 60°01' E 028°27'0 0.0
2016-Nov-29 03:24N 60°01' E 028°27'0 0.1
2016-Nov-29 02:27N 60°01' E 028°27'0 0.1
2016-Nov-29 01:30N 60°01' E 028°27'0 0.1
2016-Nov-29 00:30N 60°01' E 028°27'0 0.0
2016-Nov-28 23:30N 60°01' E 028°27'0 0.0
2016-Nov-28 22:33N 60°01' E 028°27'0 0.0
2016-Nov-28 21:33N 60°01' E 028°27'0 0.0
2016-Nov-28 20:33N 60°01' E 028°27'0 0.0
2016-Nov-28 19:33N 60°01' E 028°27'0 0.0
2016-Nov-28 18:33N 60°01' E 028°27'  

Dump ship's entire track history